sensor_id;sensor_type;location;lat;lon;timestamp;P1;durP1;ratioP1;P2;durP2;ratioP2
56830;SDS011;42713;42.676;23.352;2023-01-19T07:31:23;52.13;;;6.07;;
56830;SDS011;42713;42.676;23.352;2023-01-19T07:33:48;37.05;;;4.65;;
56830;SDS011;42713;42.676;23.352;2023-01-19T07:36:14;48.30;;;7.18;;
56830;SDS011;42713;42.676;23.352;2023-01-19T07:38:40;33.72;;;5.82;;
56830;SDS011;42713;42.676;23.352;2023-01-19T07:41:09;31.42;;;5.10;;
56830;SDS011;42713;42.676;23.352;2023-01-19T07:43:35;42.00;;;6.57;;
56830;SDS011;42713;42.676;23.352;2023-01-19T07:46:01;39.92;;;6.45;;
56830;SDS011;42713;42.676;23.352;2023-01-19T07:48:28;37.22;;;5.95;;
56830;SDS011;42713;42.676;23.352;2023-01-19T07:51:00;35.90;;;4.88;;
56830;SDS011;42713;42.676;23.352;2023-01-19T07:53:29;45.88;;;5.82;;
56830;SDS011;42713;42.676;23.352;2023-01-19T07:55:55;45.70;;;6.88;;
56830;SDS011;42713;42.676;23.352;2023-01-19T07:58:22;56.28;;;6.80;;
56830;SDS011;42713;42.676;23.352;2023-01-19T08:00:48;35.80;;;5.18;;
56830;SDS011;42713;42.676;23.352;2023-01-19T08:03:16;43.83;;;5.53;;
56830;SDS011;42713;42.676;23.352;2023-01-19T08:05:43;42.13;;;5.55;;
56830;SDS011;42713;42.676;23.352;2023-01-19T08:08:09;50.05;;;7.15;;
56830;SDS011;42713;42.676;23.352;2023-01-19T08:10:36;63.97;;;8.40;;
56830;SDS011;42713;42.676;23.352;2023-01-19T08:13:02;47.22;;;6.20;;
56830;SDS011;42713;42.676;23.352;2023-01-19T08:15:28;38.45;;;6.32;;
56830;SDS011;42713;42.676;23.352;2023-01-19T08:17:57;49.83;;;5.93;;
56830;SDS011;42713;42.676;23.352;2023-01-19T08:20:24;36.88;;;5.82;;
56830;SDS011;42713;42.676;23.352;2023-01-19T08:22:51;45.08;;;6.38;;
56830;SDS011;42713;42.676;23.352;2023-01-19T08:25:23;48.33;;;6.78;;
56830;SDS011;42713;42.676;23.352;2023-01-19T08:28:09;45.08;;;5.18;;
56830;SDS011;42713;42.676;23.352;2023-01-19T08:30:36;52.70;;;7.10;;
56830;SDS011;42713;42.676;23.352;2023-01-19T08:33:02;41.40;;;5.60;;
56830;SDS011;42713;42.676;23.352;2023-01-19T08:35:32;47.60;;;6.22;;
56830;SDS011;42713;42.676;23.352;2023-01-19T08:37:59;49.58;;;7.38;;
56830;SDS011;42713;42.676;23.352;2023-01-19T08:40:33;42.92;;;5.18;;
56830;SDS011;42713;42.676;23.352;2023-01-19T08:43:00;55.80;;;6.22;;
56830;SDS011;42713;42.676;23.352;2023-01-19T08:45:32;49.50;;;7.32;;
56830;SDS011;42713;42.676;23.352;2023-01-19T08:47:58;52.83;;;7.90;;
56830;SDS011;42713;42.676;23.352;2023-01-19T08:50:28;41.65;;;6.22;;
56830;SDS011;42713;42.676;23.352;2023-01-19T08:52:55;53.92;;;5.35;;
56830;SDS011;42713;42.676;23.352;2023-01-19T08:55:25;53.35;;;6.68;;
56830;SDS011;42713;42.676;23.352;2023-01-19T08:57:52;34.20;;;5.20;;
56830;SDS011;42713;42.676;23.352;2023-01-19T09:00:18;37.97;;;5.15;;
56830;SDS011;42713;42.676;23.352;2023-01-19T09:02:44;37.10;;;5.05;;
56830;SDS011;42713;42.676;23.352;2023-01-19T09:05:11;39.78;;;5.35;;
56830;SDS011;42713;42.676;23.352;2023-01-19T09:07:36;32.40;;;5.47;;
56830;SDS011;42713;42.676;23.352;2023-01-19T09:10:04;45.13;;;5.40;;
56830;SDS011;42713;42.676;23.352;2023-01-19T09:12:30;33.40;;;5.55;;
56830;SDS011;42713;42.676;23.352;2023-01-19T09:14:56;39.45;;;6.53;;
56830;SDS011;42713;42.676;23.352;2023-01-19T09:17:22;40.22;;;5.32;;
56830;SDS011;42713;42.676;23.352;2023-01-19T09:19:48;35.75;;;5.15;;
56830;SDS011;42713;42.676;23.352;2023-01-19T09:22:13;37.25;;;4.43;;
56830;SDS011;42713;42.676;23.352;2023-01-19T09:24:38;40.53;;;4.45;;
56830;SDS011;42713;42.676;23.352;2023-01-19T09:27:04;26.58;;;4.40;;
56830;SDS011;42713;42.676;23.352;2023-01-19T09:29:29;40.17;;;4.75;;
56830;SDS011;42713;42.676;23.352;2023-01-19T09:31:55;27.88;;;5.15;;
56830;SDS011;42713;42.676;23.352;2023-01-19T09:34:22;31.77;;;4.68;;
56830;SDS011;42713;42.676;23.352;2023-01-19T09:36:50;43.30;;;4.63;;
56830;SDS011;42713;42.676;23.352;2023-01-19T09:39:16;29.20;;;4.95;;
56830;SDS011;42713;42.676;23.352;2023-01-19T09:41:44;35.75;;;4.90;;
56830;SDS011;42713;42.676;23.352;2023-01-19T09:44:17;37.95;;;4.25;;
56830;SDS011;42713;42.676;23.352;2023-01-19T09:46:52;33.03;;;5.70;;
56830;SDS011;42713;42.676;23.352;2023-01-19T09:49:19;36.85;;;5.18;;
56830;SDS011;42713;42.676;23.352;2023-01-19T09:51:51;26.90;;;4.05;;
56830;SDS011;42713;42.676;23.352;2023-01-19T09:54:22;29.88;;;3.70;;
56830;SDS011;42713;42.676;23.352;2023-01-19T09:56:55;27.27;;;3.55;;
56830;SDS011;42713;42.676;23.352;2023-01-19T10:02:06;28.17;;;4.38;;
56830;SDS011;42713;42.676;23.352;2023-01-19T10:04:40;23.95;;;3.45;;
56830;SDS011;42713;42.676;23.352;2023-01-19T10:10:04;34.33;;;4.30;;
56830;SDS011;42713;42.676;23.352;2023-01-19T10:13:17;26.48;;;4.18;;
56830;SDS011;42713;42.676;23.352;2023-01-19T10:22:21;24.40;;;3.42;;
56830;SDS011;42713;42.676;23.352;2023-01-19T10:24:50;24.08;;;3.33;;
56830;SDS011;42713;42.676;23.352;2023-01-19T10:27:21;22.55;;;3.95;;
56830;SDS011;42713;42.676;23.352;2023-01-19T10:34:47;19.67;;;3.38;;
56830;SDS011;42713;42.676;23.352;2023-01-19T10:39:43;24.90;;;2.95;;
56830;SDS011;42713;42.676;23.352;2023-01-19T10:42:14;24.58;;;3.30;;
56830;SDS011;42713;42.676;23.352;2023-01-19T10:47:11;24.38;;;3.97;;
56830;SDS011;42713;42.676;23.352;2023-01-19T10:49:46;24.80;;;3.13;;
56830;SDS011;42713;42.676;23.352;2023-01-19T10:52:25;26.95;;;2.83;;
56830;SDS011;42713;42.676;23.352;2023-01-19T10:54:55;23.80;;;2.95;;
56830;SDS011;42713;42.676;23.352;2023-01-19T10:59:54;22.15;;;3.42;;
56830;SDS011;42713;42.676;23.352;2023-01-19T11:02:24;23.75;;;3.40;;
56830;SDS011;42713;42.676;23.352;2023-01-19T11:04:52;28.50;;;3.33;;
56830;SDS011;42713;42.676;23.352;2023-01-19T11:10:12;22.83;;;2.80;;
56830;SDS011;42713;42.676;23.352;2023-01-19T11:15:35;30.65;;;3.38;;
56830;SDS011;42713;42.676;23.352;2023-01-19T11:18:06;17.88;;;3.03;;
56830;SDS011;42713;42.676;23.352;2023-01-19T11:23:23;20.30;;;3.88;;
56830;SDS011;42713;42.676;23.352;2023-01-19T11:25:55;20.85;;;2.65;;
56830;SDS011;42713;42.676;23.352;2023-01-19T11:28:27;25.50;;;3.20;;
56830;SDS011;42713;42.676;23.352;2023-01-19T11:30:58;28.02;;;3.40;;
56830;SDS011;42713;42.676;23.352;2023-01-19T11:33:31;26.42;;;3.70;;
56830;SDS011;42713;42.676;23.352;2023-01-19T11:36:14;20.67;;;3.03;;
56830;SDS011;42713;42.676;23.352;2023-01-19T11:38:42;20.23;;;3.30;;
56830;SDS011;42713;42.676;23.352;2023-01-19T11:41:20;25.08;;;3.28;;
56830;SDS011;42713;42.676;23.352;2023-01-19T11:43:57;27.80;;;3.10;;
56830;SDS011;42713;42.676;23.352;2023-01-19T11:46:33;28.13;;;3.30;;
56830;SDS011;42713;42.676;23.352;2023-01-19T11:49:04;15.75;;;2.47;;
56830;SDS011;42713;42.676;23.352;2023-01-19T11:54:22;15.48;;;2.72;;
56830;SDS011;42713;42.676;23.352;2023-01-19T11:56:54;17.67;;;2.58;;
56830;SDS011;42713;42.676;23.352;2023-01-19T11:59:22;18.98;;;3.13;;
56830;SDS011;42713;42.676;23.352;2023-01-19T12:01:50;21.33;;;2.80;;
56830;SDS011;42713;42.676;23.352;2023-01-19T12:04:23;18.08;;;2.53;;
56830;SDS011;42713;42.676;23.352;2023-01-19T12:06:54;16.65;;;2.90;;
56830;SDS011;42713;42.676;23.352;2023-01-19T12:09:27;14.93;;;2.95;;
56830;SDS011;42713;42.676;23.352;2023-01-19T12:12:02;17.83;;;3.17;;
56830;SDS011;42713;42.676;23.352;2023-01-19T12:14:34;15.77;;;2.15;;
56830;SDS011;42713;42.676;23.352;2023-01-19T12:17:06;20.58;;;2.65;;
56830;SDS011;42713;42.676;23.352;2023-01-19T12:19:43;18.60;;;2.40;;
56830;SDS011;42713;42.676;23.352;2023-01-19T12:22:17;28.38;;;2.40;;
56830;SDS011;42713;42.676;23.352;2023-01-19T12:27:26;21.45;;;2.40;;
56830;SDS011;42713;42.676;23.352;2023-01-19T12:29:58;23.60;;;2.20;;
56830;SDS011;42713;42.676;23.352;2023-01-19T12:32:32;17.85;;;2.58;;
56830;SDS011;42713;42.676;23.352;2023-01-19T12:34:59;28.83;;;3.35;;
56830;SDS011;42713;42.676;23.352;2023-01-19T12:40:21;19.97;;;2.67;;
56830;SDS011;42713;42.676;23.352;2023-01-19T12:43:12;26.08;;;2.70;;
56830;SDS011;42713;42.676;23.352;2023-01-19T12:45:40;23.23;;;2.38;;
56830;SDS011;42713;42.676;23.352;2023-01-19T12:48:09;14.43;;;2.10;;
56830;SDS011;42713;42.676;23.352;2023-01-19T12:50:48;14.18;;;2.53;;
56830;SDS011;42713;42.676;23.352;2023-01-19T12:53:14;12.50;;;2.60;;
56830;SDS011;42713;42.676;23.352;2023-01-19T12:55:43;16.13;;;1.98;;
56830;SDS011;42713;42.676;23.352;2023-01-19T12:58:13;17.77;;;2.22;;
56830;SDS011;42713;42.676;23.352;2023-01-19T13:00:49;17.75;;;1.88;;
56830;SDS011;42713;42.676;23.352;2023-01-19T13:03:42;14.88;;;2.03;;
56830;SDS011;42713;42.676;23.352;2023-01-19T13:07:08;15.77;;;2.92;;
56830;SDS011;42713;42.676;23.352;2023-01-19T13:14:38;14.50;;;2.25;;
56830;SDS011;42713;42.676;23.352;2023-01-19T13:17:16;17.25;;;2.03;;
56830;SDS011;42713;42.676;23.352;2023-01-19T13:19:54;13.32;;;2.55;;
56830;SDS011;42713;42.676;23.352;2023-01-19T13:25:48;16.42;;;2.15;;
56830;SDS011;42713;42.676;23.352;2023-01-19T13:28:09;15.25;;;1.98;;
56830;SDS011;42713;42.676;23.352;2023-01-19T13:30:38;17.00;;;2.33;;
56830;SDS011;42713;42.676;23.352;2023-01-19T13:33:18;17.10;;;2.45;;
56830;SDS011;42713;42.676;23.352;2023-01-19T13:35:50;26.00;;;2.72;;
56830;SDS011;42713;42.676;23.352;2023-01-19T13:38:20;14.13;;;2.20;;
56830;SDS011;42713;42.676;23.352;2023-01-19T13:40:47;15.82;;;2.22;;
56830;SDS011;42713;42.676;23.352;2023-01-19T13:43:14;17.60;;;2.35;;
56830;SDS011;42713;42.676;23.352;2023-01-19T13:45:47;15.63;;;2.53;;
56830;SDS011;42713;42.676;23.352;2023-01-19T13:48:15;15.07;;;2.28;;
56830;SDS011;42713;42.676;23.352;2023-01-19T13:50:54;11.05;;;1.92;;
56830;SDS011;42713;42.676;23.352;2023-01-19T13:53:26;14.48;;;2.22;;
56830;SDS011;42713;42.676;23.352;2023-01-19T13:56:08;16.70;;;1.92;;
56830;SDS011;42713;42.676;23.352;2023-01-19T14:01:34;19.08;;;2.22;;
56830;SDS011;42713;42.676;23.352;2023-01-19T14:04:00;16.10;;;2.17;;
56830;SDS011;42713;42.676;23.352;2023-01-19T14:06:30;14.43;;;2.10;;
56830;SDS011;42713;42.676;23.352;2023-01-19T14:09:12;11.38;;;2.03;;
56830;SDS011;42713;42.676;23.352;2023-01-19T14:11:46;15.20;;;1.90;;
56830;SDS011;42713;42.676;23.352;2023-01-19T14:14:29;14.93;;;1.95;;
56830;SDS011;42713;42.676;23.352;2023-01-19T14:16:55;10.13;;;2.17;;
56830;SDS011;42713;42.676;23.352;2023-01-19T14:19:20;14.57;;;2.05;;
56830;SDS011;42713;42.676;23.352;2023-01-19T14:21:56;13.05;;;3.35;;
56830;SDS011;42713;42.676;23.352;2023-01-19T14:24:30;13.35;;;1.90;;
56830;SDS011;42713;42.676;23.352;2023-01-19T14:29:54;11.52;;;2.80;;
56830;SDS011;42713;42.676;23.352;2023-01-19T14:32:44;14.20;;;2.20;;
56830;SDS011;42713;42.676;23.352;2023-01-19T14:35:13;11.95;;;2.80;;
56830;SDS011;42713;42.676;23.352;2023-01-19T14:37:48;10.23;;;2.33;;
56830;SDS011;42713;42.676;23.352;2023-01-19T14:40:19;8.80;;;1.65;;
56830;SDS011;42713;42.676;23.352;2023-01-19T14:50:27;13.60;;;2.00;;
56830;SDS011;42713;42.676;23.352;2023-01-19T14:52:58;11.23;;;2.10;;
56830;SDS011;42713;42.676;23.352;2023-01-19T14:55:32;18.35;;;2.22;;
56830;SDS011;42713;42.676;23.352;2023-01-19T14:58:22;12.88;;;2.60;;
56830;SDS011;42713;42.676;23.352;2023-01-19T15:00:49;13.57;;;2.00;;
56830;SDS011;42713;42.676;23.352;2023-01-19T15:03:19;13.50;;;3.13;;
56830;SDS011;42713;42.676;23.352;2023-01-19T15:05:45;16.00;;;2.35;;
56830;SDS011;42713;42.676;23.352;2023-01-19T15:08:14;12.52;;;2.00;;
56830;SDS011;42713;42.676;23.352;2023-01-19T15:10:57;13.13;;;2.30;;
56830;SDS011;42713;42.676;23.352;2023-01-19T15:13:31;13.65;;;2.50;;
56830;SDS011;42713;42.676;23.352;2023-01-19T15:15:57;17.95;;;2.50;;
56830;SDS011;42713;42.676;23.352;2023-01-19T15:18:24;16.23;;;2.05;;
56830;SDS011;42713;42.676;23.352;2023-01-19T15:20:54;11.95;;;2.00;;
56830;SDS011;42713;42.676;23.352;2023-01-19T15:23:19;12.75;;;2.10;;
56830;SDS011;42713;42.676;23.352;2023-01-19T15:25:46;13.23;;;2.03;;
56830;SDS011;42713;42.676;23.352;2023-01-19T15:28:14;14.20;;;2.08;;
56830;SDS011;42713;42.676;23.352;2023-01-19T15:30:42;14.00;;;2.13;;
56830;SDS011;42713;42.676;23.352;2023-01-19T15:33:16;13.68;;;1.88;;
56830;SDS011;42713;42.676;23.352;2023-01-19T15:35:46;12.57;;;1.90;;
56830;SDS011;42713;42.676;23.352;2023-01-19T15:38:12;15.80;;;2.67;;
56830;SDS011;42713;42.676;23.352;2023-01-19T15:40:37;8.68;;;1.85;;
56830;SDS011;42713;42.676;23.352;2023-01-19T15:43:03;15.32;;;2.35;;
56830;SDS011;42713;42.676;23.352;2023-01-19T15:48:08;14.80;;;2.30;;
56830;SDS011;42713;42.676;23.352;2023-01-19T15:50:36;14.68;;;2.60;;
56830;SDS011;42713;42.676;23.352;2023-01-19T15:53:04;12.63;;;2.45;;
56830;SDS011;42713;42.676;23.352;2023-01-19T15:55:30;15.27;;;3.08;;
56830;SDS011;42713;42.676;23.352;2023-01-19T15:57:56;23.88;;;3.40;;
56830;SDS011;42713;42.676;23.352;2023-01-19T16:00:26;17.50;;;3.50;;
56830;SDS011;42713;42.676;23.352;2023-01-19T16:02:52;12.70;;;3.45;;
56830;SDS011;42713;42.676;23.352;2023-01-19T16:05:18;12.65;;;3.00;;
56830;SDS011;42713;42.676;23.352;2023-01-19T16:07:43;13.15;;;2.22;;
56830;SDS011;42713;42.676;23.352;2023-01-19T16:10:09;19.27;;;2.55;;
56830;SDS011;42713;42.676;23.352;2023-01-19T16:12:36;14.88;;;2.38;;
56830;SDS011;42713;42.676;23.352;2023-01-19T16:15:02;11.68;;;2.50;;
56830;SDS011;42713;42.676;23.352;2023-01-19T16:17:28;13.75;;;2.72;;
56830;SDS011;42713;42.676;23.352;2023-01-19T16:19:53;13.80;;;2.92;;
56830;SDS011;42713;42.676;23.352;2023-01-19T16:22:18;15.45;;;2.92;;
56830;SDS011;42713;42.676;23.352;2023-01-19T16:24:44;13.25;;;2.30;;
56830;SDS011;42713;42.676;23.352;2023-01-19T16:27:09;11.40;;;2.90;;
56830;SDS011;42713;42.676;23.352;2023-01-19T16:29:35;9.95;;;1.33;;
56830;SDS011;42713;42.676;23.352;2023-01-19T16:32:00;8.00;;;1.73;;
56830;SDS011;42713;42.676;23.352;2023-01-19T16:34:26;6.25;;;1.40;;
56830;SDS011;42713;42.676;23.352;2023-01-19T16:36:51;11.50;;;2.13;;
56830;SDS011;42713;42.676;23.352;2023-01-19T16:39:17;7.63;;;1.98;;
56830;SDS011;42713;42.676;23.352;2023-01-19T16:41:43;9.27;;;2.30;;
56830;SDS011;42713;42.676;23.352;2023-01-19T16:44:10;5.15;;;1.40;;
56830;SDS011;42713;42.676;23.352;2023-01-19T16:46:40;6.88;;;1.90;;
56830;SDS011;42713;42.676;23.352;2023-01-19T16:51:37;10.13;;;1.42;;
56830;SDS011;42713;42.676;23.352;2023-01-19T16:54:02;4.35;;;1.20;;
56830;SDS011;42713;42.676;23.352;2023-01-19T16:56:28;3.13;;;1.08;;
56830;SDS011;42713;42.676;23.352;2023-01-19T16:58:55;4.35;;;1.00;;
56830;SDS011;42713;42.676;23.352;2023-01-19T17:01:21;6.22;;;1.10;;
56830;SDS011;42713;42.676;23.352;2023-01-19T17:03:48;8.45;;;1.38;;
56830;SDS011;42713;42.676;23.352;2023-01-19T17:06:14;4.38;;;1.10;;
56830;SDS011;42713;42.676;23.352;2023-01-19T17:08:46;5.95;;;1.40;;
56830;SDS011;42713;42.676;23.352;2023-01-19T17:11:14;7.03;;;1.23;;
56830;SDS011;42713;42.676;23.352;2023-01-19T17:13:48;5.70;;;1.33;;
56830;SDS011;42713;42.676;23.352;2023-01-19T17:16:14;7.05;;;1.30;;
56830;SDS011;42713;42.676;23.352;2023-01-19T17:18:40;4.78;;;1.20;;
56830;SDS011;42713;42.676;23.352;2023-01-19T17:21:06;4.93;;;1.10;;
56830;SDS011;42713;42.676;23.352;2023-01-19T17:23:33;7.57;;;1.30;;
56830;SDS011;42713;42.676;23.352;2023-01-19T17:26:00;4.00;;;1.05;;
56830;SDS011;42713;42.676;23.352;2023-01-19T17:28:36;3.67;;;1.10;;
56830;SDS011;42713;42.676;23.352;2023-01-19T17:31:03;8.60;;;1.60;;
56830;SDS011;42713;42.676;23.352;2023-01-19T17:33:30;6.95;;;1.77;;
56830;SDS011;42713;42.676;23.352;2023-01-19T17:36:00;8.00;;;1.58;;
56830;SDS011;42713;42.676;23.352;2023-01-19T17:38:30;4.93;;;1.40;;
56830;SDS011;42713;42.676;23.352;2023-01-19T17:40:56;4.18;;;1.20;;
56830;SDS011;42713;42.676;23.352;2023-01-19T17:43:22;7.60;;;1.58;;
56830;SDS011;42713;42.676;23.352;2023-01-19T17:45:47;5.78;;;1.38;;
56830;SDS011;42713;42.676;23.352;2023-01-19T17:48:13;8.52;;;1.63;;
56830;SDS011;42713;42.676;23.352;2023-01-19T17:50:38;6.63;;;1.95;;
56830;SDS011;42713;42.676;23.352;2023-01-19T17:53:04;7.35;;;1.88;;
56830;SDS011;42713;42.676;23.352;2023-01-19T17:55:31;8.27;;;1.60;;
56830;SDS011;42713;42.676;23.352;2023-01-19T17:57:58;8.07;;;1.67;;
56830;SDS011;42713;42.676;23.352;2023-01-19T18:00:23;6.60;;;1.88;;
56830;SDS011;42713;42.676;23.352;2023-01-19T18:02:49;11.93;;;2.10;;
56830;SDS011;42713;42.676;23.352;2023-01-19T18:05:16;11.13;;;2.00;;
56830;SDS011;42713;42.676;23.352;2023-01-19T18:07:42;7.65;;;1.80;;
56830;SDS011;42713;42.676;23.352;2023-01-19T18:10:07;4.88;;;1.58;;
56830;SDS011;42713;42.676;23.352;2023-01-19T18:12:33;7.20;;;1.70;;
56830;SDS011;42713;42.676;23.352;2023-01-19T18:14:59;7.60;;;2.13;;
56830;SDS011;42713;42.676;23.352;2023-01-19T18:17:24;8.38;;;2.10;;
56830;SDS011;42713;42.676;23.352;2023-01-19T18:19:50;7.50;;;1.80;;
56830;SDS011;42713;42.676;23.352;2023-01-19T18:22:16;8.77;;;1.60;;
56830;SDS011;42713;42.676;23.352;2023-01-19T18:24:41;4.85;;;1.23;;
56830;SDS011;42713;42.676;23.352;2023-01-19T18:27:08;7.47;;;2.00;;
56830;SDS011;42713;42.676;23.352;2023-01-19T18:29:34;8.30;;;2.70;;
56830;SDS011;42713;42.676;23.352;2023-01-19T18:32:00;9.15;;;2.70;;
56830;SDS011;42713;42.676;23.352;2023-01-19T18:34:26;13.07;;;3.35;;
56830;SDS011;42713;42.676;23.352;2023-01-19T18:36:51;8.90;;;2.53;;
56830;SDS011;42713;42.676;23.352;2023-01-19T18:39:17;7.95;;;2.10;;
56830;SDS011;42713;42.676;23.352;2023-01-19T18:41:42;7.88;;;1.85;;
56830;SDS011;42713;42.676;23.352;2023-01-19T18:44:08;9.10;;;1.85;;
56830;SDS011;42713;42.676;23.352;2023-01-19T18:46:34;10.23;;;1.60;;
56830;SDS011;42713;42.676;23.352;2023-01-19T18:49:00;7.75;;;1.38;;
56830;SDS011;42713;42.676;23.352;2023-01-19T18:51:26;7.57;;;1.30;;
56830;SDS011;42713;42.676;23.352;2023-01-19T18:53:51;9.35;;;1.90;;
56830;SDS011;42713;42.676;23.352;2023-01-19T18:56:17;4.95;;;1.40;;
56830;SDS011;42713;42.676;23.352;2023-01-19T18:58:43;6.10;;;1.38;;
56830;SDS011;42713;42.676;23.352;2023-01-19T19:01:19;4.35;;;1.35;;
56830;SDS011;42713;42.676;23.352;2023-01-19T19:03:47;3.55;;;1.15;;
56830;SDS011;42713;42.676;23.352;2023-01-19T19:06:12;4.63;;;1.20;;
56830;SDS011;42713;42.676;23.352;2023-01-19T19:08:39;4.80;;;1.20;;
56830;SDS011;42713;42.676;23.352;2023-01-19T19:11:06;5.90;;;1.30;;
56830;SDS011;42713;42.676;23.352;2023-01-19T19:13:32;6.53;;;1.00;;
56830;SDS011;42713;42.676;23.352;2023-01-19T19:16:04;3.53;;;0.98;;
56830;SDS011;42713;42.676;23.352;2023-01-19T19:18:32;3.25;;;1.00;;
56830;SDS011;42713;42.676;23.352;2023-01-19T19:20:58;4.18;;;1.00;;
56830;SDS011;42713;42.676;23.352;2023-01-19T19:23:24;2.97;;;0.90;;
56830;SDS011;42713;42.676;23.352;2023-01-19T19:25:49;4.78;;;1.20;;
56830;SDS011;42713;42.676;23.352;2023-01-19T19:28:14;2.50;;;1.00;;
56830;SDS011;42713;42.676;23.352;2023-01-19T19:30:40;2.60;;;0.80;;
56830;SDS011;42713;42.676;23.352;2023-01-19T19:33:05;7.22;;;1.30;;
56830;SDS011;42713;42.676;23.352;2023-01-19T19:35:31;5.88;;;1.20;;
56830;SDS011;42713;42.676;23.352;2023-01-19T19:37:57;5.25;;;1.17;;
56830;SDS011;42713;42.676;23.352;2023-01-19T19:40:26;5.35;;;1.10;;
56830;SDS011;42713;42.676;23.352;2023-01-19T19:42:52;3.17;;;1.05;;
56830;SDS011;42713;42.676;23.352;2023-01-19T19:45:17;3.20;;;1.00;;
56830;SDS011;42713;42.676;23.352;2023-01-19T19:47:43;3.35;;;0.70;;
56830;SDS011;42713;42.676;23.352;2023-01-19T19:50:09;3.80;;;0.80;;
56830;SDS011;42713;42.676;23.352;2023-01-19T19:52:42;4.63;;;0.90;;
56830;SDS011;42713;42.676;23.352;2023-01-19T19:55:08;4.95;;;1.00;;
56830;SDS011;42713;42.676;23.352;2023-01-19T19:57:34;1.42;;;0.57;;
56830;SDS011;42713;42.676;23.352;2023-01-19T20:00:00;2.17;;;0.73;;
56830;SDS011;42713;42.676;23.352;2023-01-19T20:02:26;2.30;;;0.73;;
56830;SDS011;42713;42.676;23.352;2023-01-19T20:04:52;3.15;;;0.77;;
56830;SDS011;42713;42.676;23.352;2023-01-19T20:07:17;0.68;;;0.30;;
56830;SDS011;42713;42.676;23.352;2023-01-19T20:09:43;3.67;;;0.93;;
56830;SDS011;42713;42.676;23.352;2023-01-19T20:12:09;4.90;;;0.80;;
56830;SDS011;42713;42.676;23.352;2023-01-19T20:14:35;4.13;;;0.73;;
56830;SDS011;42713;42.676;23.352;2023-01-19T20:17:00;12.27;;;2.60;;
56830;SDS011;42713;42.676;23.352;2023-01-19T20:19:26;6.68;;;2.05;;
56830;SDS011;42713;42.676;23.352;2023-01-19T20:21:52;8.02;;;2.50;;
56830;SDS011;42713;42.676;23.352;2023-01-19T20:24:18;7.65;;;2.45;;
56830;SDS011;42713;42.676;23.352;2023-01-19T20:26:46;9.80;;;2.72;;
56830;SDS011;42713;42.676;23.352;2023-01-19T20:29:14;9.10;;;2.72;;
56830;SDS011;42713;42.676;23.352;2023-01-19T20:31:52;8.15;;;2.05;;
56830;SDS011;42713;42.676;23.352;2023-01-19T20:34:23;2.40;;;1.00;;
56830;SDS011;42713;42.676;23.352;2023-01-19T20:36:51;3.67;;;1.30;;
56830;SDS011;42713;42.676;23.352;2023-01-19T20:39:18;4.45;;;0.98;;
56830;SDS011;42713;42.676;23.352;2023-01-19T20:41:45;3.10;;;1.17;;
56830;SDS011;42713;42.676;23.352;2023-01-19T20:44:16;3.95;;;0.82;;
56830;SDS011;42713;42.676;23.352;2023-01-19T20:46:47;7.28;;;1.60;;
56830;SDS011;42713;42.676;23.352;2023-01-19T20:49:13;3.67;;;0.90;;
56830;SDS011;42713;42.676;23.352;2023-01-19T20:51:40;4.18;;;0.95;;
56830;SDS011;42713;42.676;23.352;2023-01-19T20:54:14;5.68;;;1.20;;
56830;SDS011;42713;42.676;23.352;2023-01-19T20:56:41;5.32;;;1.40;;
56830;SDS011;42713;42.676;23.352;2023-01-19T20:59:10;8.77;;;1.45;;
56830;SDS011;42713;42.676;23.352;2023-01-19T21:01:36;8.70;;;1.70;;
56830;SDS011;42713;42.676;23.352;2023-01-19T21:04:02;5.00;;;1.35;;
56830;SDS011;42713;42.676;23.352;2023-01-19T21:06:28;8.18;;;1.30;;
56830;SDS011;42713;42.676;23.352;2023-01-19T21:08:53;6.63;;;1.30;;
56830;SDS011;42713;42.676;23.352;2023-01-19T21:11:19;4.90;;;1.23;;
56830;SDS011;42713;42.676;23.352;2023-01-19T21:13:45;7.80;;;1.40;;
56830;SDS011;42713;42.676;23.352;2023-01-19T21:16:12;9.93;;;2.13;;
56830;SDS011;42713;42.676;23.352;2023-01-19T21:18:39;6.30;;;1.80;;
56830;SDS011;42713;42.676;23.352;2023-01-19T21:21:05;6.65;;;1.80;;
56830;SDS011;42713;42.676;23.352;2023-01-19T21:23:33;8.23;;;1.80;;
56830;SDS011;42713;42.676;23.352;2023-01-19T21:25:59;7.93;;;1.85;;
56830;SDS011;42713;42.676;23.352;2023-01-19T21:28:25;11.13;;;2.72;;
56830;SDS011;42713;42.676;23.352;2023-01-19T21:30:52;7.15;;;1.88;;
56830;SDS011;42713;42.676;23.352;2023-01-19T21:33:19;6.25;;;1.77;;
56830;SDS011;42713;42.676;23.352;2023-01-19T21:35:48;4.80;;;1.42;;
56830;SDS011;42713;42.676;23.352;2023-01-19T21:38:18;6.68;;;1.58;;
56830;SDS011;42713;42.676;23.352;2023-01-19T21:40:45;8.80;;;2.08;;
56830;SDS011;42713;42.676;23.352;2023-01-19T21:43:11;7.00;;;2.40;;
56830;SDS011;42713;42.676;23.352;2023-01-19T21:45:38;10.35;;;3.10;;
56830;SDS011;42713;42.676;23.352;2023-01-19T21:48:04;9.23;;;3.08;;
56830;SDS011;42713;42.676;23.352;2023-01-19T21:50:29;9.82;;;3.83;;
56830;SDS011;42713;42.676;23.352;2023-01-19T21:52:55;15.40;;;6.90;;
56830;SDS011;42713;42.676;23.352;2023-01-19T21:55:22;15.77;;;8.40;;
56830;SDS011;42713;42.676;23.352;2023-01-19T21:57:47;16.48;;;7.80;;
56830;SDS011;42713;42.676;23.352;2023-01-19T22:00:16;14.05;;;5.93;;
56830;SDS011;42713;42.676;23.352;2023-01-19T22:02:41;12.93;;;5.00;;
56830;SDS011;42713;42.676;23.352;2023-01-19T22:05:07;11.18;;;4.40;;
56830;SDS011;42713;42.676;23.352;2023-01-19T22:07:32;7.95;;;2.85;;
56830;SDS011;42713;42.676;23.352;2023-01-19T22:09:58;7.13;;;2.88;;
56830;SDS011;42713;42.676;23.352;2023-01-19T22:12:23;8.63;;;3.45;;
56830;SDS011;42713;42.676;23.352;2023-01-19T22:14:49;8.63;;;3.10;;
56830;SDS011;42713;42.676;23.352;2023-01-19T22:17:14;10.35;;;3.13;;
56830;SDS011;42713;42.676;23.352;2023-01-19T22:19:40;7.97;;;2.40;;
56830;SDS011;42713;42.676;23.352;2023-01-19T22:22:05;4.88;;;1.95;;
56830;SDS011;42713;42.676;23.352;2023-01-19T22:24:30;6.25;;;1.90;;
56830;SDS011;42713;42.676;23.352;2023-01-19T22:26:56;5.82;;;1.77;;
56830;SDS011;42713;42.676;23.352;2023-01-19T22:29:21;6.55;;;2.10;;
56830;SDS011;42713;42.676;23.352;2023-01-19T22:31:47;8.38;;;2.80;;
56830;SDS011;42713;42.676;23.352;2023-01-19T22:34:12;6.72;;;2.10;;
56830;SDS011;42713;42.676;23.352;2023-01-19T22:36:40;7.72;;;2.50;;
56830;SDS011;42713;42.676;23.352;2023-01-19T22:39:08;8.23;;;2.45;;
56830;SDS011;42713;42.676;23.352;2023-01-19T22:41:42;8.73;;;2.75;;
56830;SDS011;42713;42.676;23.352;2023-01-19T22:44:10;10.48;;;3.53;;
56830;SDS011;42713;42.676;23.352;2023-01-19T22:46:40;9.95;;;3.40;;
56830;SDS011;42713;42.676;23.352;2023-01-19T22:49:06;12.23;;;3.55;;
56830;SDS011;42713;42.676;23.352;2023-01-19T22:51:33;9.40;;;3.50;;
56830;SDS011;42713;42.676;23.352;2023-01-19T22:53:59;10.63;;;3.47;;
56830;SDS011;42713;42.676;23.352;2023-01-19T22:56:25;10.77;;;3.95;;
56830;SDS011;42713;42.676;23.352;2023-01-19T22:58:53;10.77;;;2.88;;
56830;SDS011;42713;42.676;23.352;2023-01-19T23:01:38;6.55;;;2.40;;
56830;SDS011;42713;42.676;23.352;2023-01-19T23:04:05;7.38;;;2.35;;
56830;SDS011;42713;42.676;23.352;2023-01-19T23:06:34;7.35;;;2.40;;
56830;SDS011;42713;42.676;23.352;2023-01-19T23:09:01;7.38;;;2.15;;
56830;SDS011;42713;42.676;23.352;2023-01-19T23:11:38;6.65;;;1.98;;
56830;SDS011;42713;42.676;23.352;2023-01-19T23:14:05;5.18;;;1.65;;